createdAt,value
2018-09-23T00:00:58.520Z,10.60
2018-09-23T00:03:01.541Z,10.50
2018-09-23T00:05:04.631Z,10.50
2018-09-23T00:07:07.578Z,10.40
2018-09-23T00:09:10.662Z,10.40
2018-09-23T00:11:13.642Z,10.40
2018-09-23T00:13:16.578Z,10.40
2018-09-23T00:15:19.601Z,10.40
2018-09-23T00:17:22.574Z,10.50
2018-09-23T00:19:25.529Z,10.50
2018-09-23T00:21:29.959Z,10.50
2018-09-23T00:23:32.997Z,10.50
2018-09-23T00:25:35.958Z,10.50
2018-09-23T00:27:38.953Z,10.60
2018-09-23T00:29:48.220Z,10.50
2018-09-23T00:31:51.760Z,10.50
2018-09-23T00:33:54.686Z,10.50
2018-09-23T00:35:59.398Z,10.40
2018-09-23T00:38:02.526Z,10.40
2018-09-23T00:40:05.849Z,10.40
2018-09-23T00:42:08.890Z,10.40
2018-09-23T00:44:11.895Z,10.50
2018-09-23T00:46:14.888Z,10.40
2018-09-23T00:48:17.987Z,10.50
2018-09-23T00:50:20.969Z,10.40
2018-09-23T00:52:24.070Z,10.40
2018-09-23T00:54:28.881Z,10.40
2018-09-23T00:56:31.840Z,10.40
2018-09-23T00:58:35.238Z,10.40
2018-09-23T01:00:38.273Z,10.40
2018-09-23T01:02:41.241Z,10.40
2018-09-23T01:04:44.255Z,10.40
2018-09-23T01:06:47.411Z,10.40
2018-09-23T01:08:50.366Z,10.40
2018-09-23T01:10:53.412Z,10.40
2018-09-23T01:12:57.798Z,10.40
2018-09-23T01:15:00.795Z,10.30
2018-09-23T01:17:03.763Z,10.30
2018-09-23T01:19:06.738Z,10.30
2018-09-23T01:21:09.716Z,10.40
2018-09-23T01:23:12.664Z,10.30
2018-09-23T01:25:15.615Z,10.40
2018-09-23T01:27:18.618Z,10.40
2018-09-23T01:29:21.585Z,10.40
2018-09-23T01:31:24.633Z,10.40
2018-09-23T01:33:28.929Z,10.40
2018-09-23T01:35:31.908Z,10.40
2018-09-23T01:37:34.876Z,10.40
2018-09-23T01:39:37.880Z,10.40
2018-09-23T01:41:40.863Z,10.40
2018-09-23T01:43:43.834Z,10.40
2018-09-23T01:45:46.847Z,10.40
2018-09-23T01:47:49.779Z,10.40
2018-09-23T01:49:52.760Z,10.40
2018-09-23T01:51:55.743Z,10.40
2018-09-23T01:53:58.942Z,10.40
2018-09-23T01:56:01.924Z,10.40
2018-09-23T01:58:04.966Z,10.40
2018-09-23T02:00:07.991Z,10.40
2018-09-23T02:02:10.961Z,10.40
2018-09-23T02:04:13.935Z,10.40
2018-09-23T02:06:16.874Z,10.40
2018-09-23T02:08:19.842Z,10.40
2018-09-23T02:10:22.890Z,10.30
2018-09-23T02:12:27.850Z,10.30
2018-09-23T02:14:30.931Z,10.30
2018-09-23T02:16:33.895Z,10.30
2018-09-23T02:18:36.849Z,10.30
2018-09-23T02:20:39.832Z,10.30
2018-09-23T02:22:43.414Z,10.30
2018-09-23T02:24:46.360Z,10.30
2018-09-23T02:26:49.327Z,10.30
2018-09-23T02:28:52.411Z,10.30
2018-09-23T02:30:55.388Z,10.30
2018-09-23T02:32:59.733Z,10.30
2018-09-23T02:35:02.719Z,10.30
2018-09-23T02:37:05.762Z,10.30
2018-09-23T02:39:09.903Z,10.30
2018-09-23T02:41:12.924Z,10.30
2018-09-23T02:43:15.894Z,10.30
2018-09-23T02:45:18.914Z,10.20
2018-09-23T02:47:21.914Z,10.20
2018-09-23T02:49:24.942Z,10.20
2018-09-23T02:51:29.444Z,10.20
2018-09-23T02:53:32.432Z,10.20
2018-09-23T02:55:35.383Z,10.20
2018-09-23T02:57:38.347Z,10.30
2018-09-23T02:59:41.307Z,10.20
2018-09-23T03:01:44.254Z,10.30
2018-09-23T03:03:47.232Z,10.30
2018-09-23T03:05:50.269Z,10.30
2018-09-23T03:07:53.255Z,10.30
2018-09-23T03:09:57.403Z,10.30
2018-09-23T03:12:00.536Z,10.20
2018-09-23T03:14:03.504Z,10.20
2018-09-23T03:16:06.548Z,10.20
2018-09-23T03:18:09.575Z,10.20
2018-09-23T03:20:12.525Z,10.20
2018-09-23T03:22:15.500Z,10.30
2018-09-23T03:24:18.506Z,10.20
2018-09-23T03:26:21.487Z,10.20
2018-09-23T03:28:24.415Z,10.30
2018-09-23T03:30:29.440Z,10.30
2018-09-23T03:32:32.389Z,10.30
2018-09-23T03:34:35.399Z,10.30
2018-09-23T03:36:38.393Z,10.30
2018-09-23T03:38:41.407Z,10.30
2018-09-23T03:40:44.337Z,10.20
2018-09-23T03:42:47.491Z,10.30
2018-09-23T03:44:50.468Z,10.30
2018-09-23T03:46:53.510Z,10.30
2018-09-23T03:48:58.072Z,10.30
2018-09-23T03:51:01.070Z,10.30
2018-09-23T03:53:04.208Z,10.30
2018-09-23T03:55:07.187Z,10.30
2018-09-23T03:57:10.135Z,10.30
2018-09-23T03:59:13.525Z,10.30
2018-09-23T04:01:16.527Z,10.30
2018-09-23T04:03:19.803Z,10.20
2018-09-23T04:05:22.820Z,10.20
2018-09-23T04:07:25.774Z,10.20
2018-09-23T04:09:30.002Z,10.20
2018-09-23T04:11:32.945Z,10.20
2018-09-23T04:13:36.097Z,10.20
2018-09-23T04:15:39.129Z,10.20
2018-09-23T04:17:42.141Z,10.20
2018-09-23T04:19:45.097Z,10.20
2018-09-23T04:21:48.215Z,10.20
2018-09-23T04:23:51.149Z,10.30
2018-09-23T04:25:54.103Z,10.30
2018-09-23T04:27:58.794Z,10.30
2018-09-23T04:30:01.748Z,10.30
2018-09-23T04:32:04.841Z,10.20
2018-09-23T04:34:07.810Z,10.20
2018-09-23T04:36:10.810Z,10.20
2018-09-23T04:38:13.748Z,10.20
2018-09-23T04:40:16.939Z,10.30
2018-09-23T04:42:19.890Z,10.30
2018-09-23T04:44:22.873Z,10.30
2018-09-23T04:46:27.513Z,10.30
2018-09-23T04:48:30.470Z,10.30
2018-09-23T04:50:33.446Z,10.20
2018-09-23T04:52:36.384Z,10.20
2018-09-23T04:54:39.320Z,10.10
2018-09-23T04:56:42.260Z,10.10
2018-09-23T04:58:45.231Z,10.10
2018-09-23T05:00:48.418Z,10.10
2018-09-23T05:02:51.355Z,10.10
2018-09-23T05:04:54.330Z,10.10
2018-09-23T05:06:58.642Z,10.10
2018-09-23T05:09:01.641Z,10.10
2018-09-23T05:11:04.566Z,10.10
2018-09-23T05:13:07.570Z,10.10
2018-09-23T05:15:10.487Z,10.10
2018-09-23T05:17:13.886Z,10.10
2018-09-23T05:19:16.919Z,10.10
2018-09-23T05:21:19.854Z,10.20
2018-09-23T05:23:22.835Z,10.20
2018-09-23T05:25:28.152Z,10.20
2018-09-23T05:27:31.155Z,10.20
2018-09-23T05:29:34.376Z,10.10
2018-09-23T05:31:37.311Z,10.20
2018-09-23T05:34:14.049Z,10.20
2018-09-23T05:36:17.035Z,10.20
2018-09-23T05:38:20.274Z,10.10
2018-09-23T05:40:23.751Z,10.10
2018-09-23T05:42:28.893Z,10.10
2018-09-23T05:44:31.869Z,10.20
2018-09-23T05:46:34.874Z,10.30
2018-09-23T05:48:37.833Z,10.30
2018-09-23T05:50:40.826Z,10.30
2018-09-23T05:52:43.790Z,10.30
2018-09-23T05:54:46.765Z,10.40
2018-09-23T05:56:49.882Z,10.40
2018-09-23T05:58:52.863Z,10.50
2018-09-23T06:00:57.356Z,10.50
2018-09-23T06:03:00.325Z,10.50
2018-09-23T06:05:03.329Z,10.50
2018-09-23T06:07:06.356Z,10.60
2018-09-23T06:09:09.343Z,10.60
2018-09-23T06:11:12.322Z,10.60
2018-09-23T06:13:15.262Z,10.60
2018-09-23T06:15:18.434Z,10.60
2018-09-23T06:17:21.421Z,10.70
2018-09-23T06:19:24.440Z,10.60
2018-09-23T06:21:28.985Z,10.70
2018-09-23T06:23:31.991Z,10.70
2018-09-23T06:25:34.987Z,10.70
2018-09-23T06:27:38.182Z,10.80
2018-09-23T06:29:41.154Z,10.80
2018-09-23T06:31:44.129Z,10.90
2018-09-23T06:33:47.124Z,10.90
2018-09-23T06:35:50.061Z,11.00
2018-09-23T06:37:53.013Z,11.00
2018-09-23T06:39:57.874Z,11.10
2018-09-23T06:42:00.876Z,11.20
2018-09-23T06:44:03.870Z,11.20
2018-09-23T06:46:06.869Z,11.20
2018-09-23T06:48:09.875Z,11.10
2018-09-23T06:50:12.884Z,11.10
2018-09-23T06:52:15.836Z,11.10
2018-09-23T06:54:18.836Z,11.10
2018-09-23T06:56:21.857Z,11.10
2018-09-23T06:58:24.945Z,11.20
2018-09-23T07:00:30.008Z,11.30
2018-09-23T07:02:32.969Z,11.30
2018-09-23T07:04:36.140Z,11.40
2018-09-23T07:06:39.097Z,11.50
2018-09-23T07:08:42.091Z,11.60
2018-09-23T07:10:45.242Z,11.60
2018-09-23T07:12:48.230Z,11.60
2018-09-23T07:14:51.200Z,11.60
2018-09-23T07:16:54.216Z,11.60
2018-09-23T07:18:58.394Z,11.60
2018-09-23T07:21:01.355Z,11.70
2018-09-23T07:23:04.392Z,11.70
2018-09-23T07:25:07.421Z,11.70
2018-09-23T07:27:10.420Z,11.80
2018-09-23T07:29:13.555Z,11.90
2018-09-23T07:31:16.566Z,11.90
2018-09-23T07:33:19.502Z,11.90
2018-09-23T07:35:22.550Z,12.00
2018-09-23T07:37:25.595Z,12.00
2018-09-23T07:39:30.110Z,12.00
2018-09-23T07:41:33.016Z,12.00
2018-09-23T07:43:35.986Z,12.10
2018-09-23T07:45:39.076Z,12.10
2018-09-23T07:47:42.016Z,12.10
2018-09-23T07:49:44.954Z,12.10
2018-09-23T07:51:48.065Z,12.10
2018-09-23T07:53:51.034Z,12.10
2018-09-23T07:55:53.982Z,12.10
2018-09-23T07:57:57.231Z,12.20
2018-09-23T08:00:00.563Z,12.20
2018-09-23T08:02:03.535Z,12.30
2018-09-23T08:04:06.557Z,12.40
2018-09-23T08:06:09.539Z,12.40
2018-09-23T08:08:12.511Z,12.40
2018-09-23T08:10:15.516Z,12.50
2018-09-23T08:12:18.563Z,12.60
2018-09-23T08:14:21.918Z,12.60
2018-09-23T08:16:24.587Z,12.60
2018-09-23T08:18:29.110Z,12.70
2018-09-23T08:20:32.142Z,12.70
2018-09-23T08:22:35.050Z,12.80
2018-09-23T08:24:38.035Z,12.80
2018-09-23T08:26:41.093Z,12.80
2018-09-23T08:28:44.031Z,12.90
2018-09-23T08:30:47.106Z,12.90
2018-09-23T08:32:50.938Z,13.00
2018-09-23T08:34:53.932Z,13.10
2018-09-23T08:36:58.198Z,13.20
2018-09-23T08:39:01.209Z,13.30
2018-09-23T08:41:04.392Z,13.40
2018-09-23T08:43:07.475Z,13.30
2018-09-23T08:45:10.444Z,13.30
2018-09-23T08:47:13.633Z,13.20
2018-09-23T08:49:16.579Z,13.20
2018-09-23T08:51:19.921Z,13.30
2018-09-23T08:53:23.130Z,13.30
2018-09-23T08:55:27.936Z,13.40
2018-09-23T08:57:30.999Z,13.40
2018-09-23T08:59:34.137Z,13.40
2018-09-23T09:01:37.082Z,13.30
2018-09-23T09:03:41.033Z,13.30
2018-09-23T09:05:44.959Z,13.30
2018-09-23T09:07:48.557Z,13.40
2018-09-23T09:09:52.170Z,13.40
2018-09-23T09:11:57.454Z,13.40
2018-09-23T09:14:00.787Z,13.50
2018-09-23T09:16:04.726Z,13.60
2018-09-23T09:18:07.789Z,13.50
2018-09-23T09:20:11.677Z,13.50
2018-09-23T09:22:15.647Z,13.50
2018-09-23T09:24:19.557Z,13.60
2018-09-23T09:26:23.116Z,13.60
2018-09-23T09:28:28.460Z,13.70
2018-09-23T09:30:32.385Z,13.70
2018-09-23T09:32:36.245Z,13.70
2018-09-23T09:34:40.001Z,13.70
2018-09-23T09:36:43.912Z,13.80
2018-09-23T09:38:47.812Z,13.80
2018-09-23T09:40:51.295Z,13.70
2018-09-23T09:42:54.889Z,13.80
2018-09-23T09:45:00.803Z,13.90
2018-09-23T09:47:04.862Z,13.90
2018-09-23T09:49:08.632Z,14.00
2018-09-23T09:51:11.657Z,14.10
2018-09-23T09:53:14.648Z,14.20
2018-09-23T09:55:17.844Z,14.20
2018-09-23T09:57:20.831Z,14.20
2018-09-23T09:59:23.789Z,14.20
2018-09-23T10:01:27.200Z,14.20
2018-09-23T10:03:30.393Z,14.20
2018-09-23T10:05:33.444Z,14.20
2018-09-23T10:07:36.448Z,14.20
2018-09-23T10:09:39.488Z,14.20
2018-09-23T10:11:42.494Z,14.20
2018-09-23T10:13:45.515Z,14.10
2018-09-23T10:15:48.541Z,14.00
2018-09-23T10:17:51.581Z,14.00
2018-09-23T10:19:54.562Z,14.00
2018-09-23T10:21:59.005Z,14.00
2018-09-23T10:24:02.073Z,14.10
2018-09-23T10:26:05.421Z,14.20
2018-09-23T10:28:08.483Z,14.20
2018-09-23T10:30:11.470Z,14.20
2018-09-23T10:32:14.496Z,14.20
2018-09-23T10:34:17.569Z,14.30
2018-09-23T10:36:20.575Z,14.30
2018-09-23T10:38:23.656Z,14.30
2018-09-23T10:40:28.381Z,14.20
2018-09-23T10:42:31.403Z,14.20
2018-09-23T10:44:34.406Z,14.30
2018-09-23T10:46:37.733Z,14.30
2018-09-23T10:48:40.765Z,14.30
2018-09-23T10:50:43.807Z,14.40
2018-09-23T10:52:46.860Z,14.60
2018-09-23T10:54:49.903Z,14.70
2018-09-23T10:56:52.970Z,14.80
2018-09-23T10:58:57.476Z,14.70
2018-09-23T11:01:00.502Z,14.60
2018-09-23T11:03:03.598Z,14.60
2018-09-23T11:05:06.820Z,14.50
2018-09-23T11:07:09.877Z,14.50
2018-09-23T11:09:12.887Z,14.50
2018-09-23T11:11:16.324Z,14.60
2018-09-23T11:13:19.372Z,14.40
2018-09-23T11:15:22.477Z,14.40
2018-09-23T11:17:25.460Z,14.50
2018-09-23T11:19:29.861Z,14.40
2018-09-23T11:21:32.900Z,14.40
2018-09-23T11:23:36.319Z,14.30
2018-09-23T11:25:39.325Z,14.30
2018-09-23T11:27:42.360Z,14.20
2018-09-23T11:29:45.556Z,14.30
2018-09-23T11:31:48.626Z,14.30
2018-09-23T11:33:51.685Z,14.30
2018-09-23T11:35:54.913Z,14.40
2018-09-23T11:38:01.049Z,14.30
2018-09-23T11:40:04.525Z,14.20
2018-09-23T11:42:07.771Z,14.30
2018-09-23T11:44:10.779Z,14.30
2018-09-23T11:46:13.787Z,14.30
2018-09-23T11:48:16.829Z,14.30
2018-09-23T11:50:19.832Z,14.30
2018-09-23T11:52:22.904Z,14.20
2018-09-23T11:54:27.539Z,14.20
2018-09-23T11:56:30.543Z,14.20
2018-09-23T11:58:33.544Z,14.20
2018-09-23T12:00:36.872Z,14.20
2018-09-23T12:02:40.808Z,14.20
2018-09-23T12:04:43.790Z,14.30
2018-09-23T12:06:47.788Z,14.20
2018-09-23T12:08:50.806Z,14.10
2018-09-23T12:10:53.925Z,14.20
2018-09-23T12:12:58.166Z,14.10
2018-09-23T12:15:01.182Z,14.10
2018-09-23T12:17:04.236Z,14.00
2018-09-23T12:19:07.268Z,14.00
2018-09-23T12:21:10.315Z,13.90
2018-09-23T12:23:13.339Z,13.90
2018-09-23T12:25:16.375Z,13.90
2018-09-23T12:27:19.447Z,13.90
2018-09-23T12:29:22.487Z,13.80
2018-09-23T12:31:25.532Z,13.80
2018-09-23T12:33:30.069Z,13.70
2018-09-23T12:35:33.167Z,13.50
2018-09-23T12:37:36.212Z,13.60
2018-09-23T12:39:39.258Z,13.50
2018-09-23T12:41:42.389Z,13.60
2018-09-23T12:43:45.424Z,13.50
2018-09-23T12:45:48.539Z,13.60
2018-09-23T12:47:51.774Z,13.60
2018-09-23T12:49:54.874Z,13.60
2018-09-23T12:51:59.310Z,13.50
2018-09-23T12:54:02.402Z,13.40
2018-09-23T12:56:05.570Z,13.40
2018-09-23T12:58:08.687Z,13.40
2018-09-23T13:00:11.697Z,13.40
2018-09-23T13:02:14.844Z,13.40
2018-09-23T13:04:17.839Z,13.30
2018-09-23T13:06:20.874Z,13.20
2018-09-23T13:08:24.077Z,13.10
2018-09-23T13:10:27.549Z,13.10
2018-09-23T13:12:30.589Z,13.00
2018-09-23T13:14:33.647Z,13.00
2018-09-23T13:16:36.745Z,12.90
2018-09-23T13:18:39.782Z,12.90
2018-09-23T13:20:42.908Z,12.80
2018-09-23T13:22:45.949Z,12.80
2018-09-23T13:24:49.156Z,12.80
2018-09-23T13:26:52.151Z,12.70
2018-09-23T13:28:55.310Z,12.60
2018-09-23T13:31:00.158Z,12.50
2018-09-23T13:33:03.197Z,12.50
2018-09-23T13:35:06.237Z,12.50
2018-09-23T13:37:09.228Z,12.50
2018-09-23T13:39:12.520Z,12.60
2018-09-23T13:41:15.527Z,12.60
2018-09-23T13:43:18.531Z,12.50
2018-09-23T13:45:21.646Z,12.60
2018-09-23T13:47:24.702Z,12.50
2018-09-23T13:49:29.333Z,12.50
2018-09-23T13:51:32.368Z,12.30
2018-09-23T13:53:35.400Z,12.30
2018-09-23T13:55:38.572Z,12.30
2018-09-23T13:57:41.577Z,12.30
2018-09-23T13:59:44.539Z,12.30
2018-09-23T14:01:47.550Z,12.30
2018-09-23T14:03:50.519Z,12.20
2018-09-23T14:05:53.584Z,12.20
2018-09-23T14:07:59.197Z,12.20
2018-09-23T14:10:02.230Z,12.10
2018-09-23T14:12:06.174Z,12.00
2018-09-23T14:14:09.233Z,12.00
2018-09-23T14:16:12.314Z,12.00
2018-09-23T14:18:15.622Z,11.90
2018-09-23T14:20:18.621Z,11.90
2018-09-23T14:22:21.605Z,12.00
2018-09-23T14:24:24.680Z,12.00
2018-09-23T14:26:29.307Z,12.00
2018-09-23T14:28:32.331Z,11.90
2018-09-23T14:30:35.374Z,11.90
2018-09-23T14:32:38.552Z,11.90
2018-09-23T14:34:41.551Z,12.00
2018-09-23T14:36:44.559Z,12.00
2018-09-23T14:38:47.588Z,12.00
2018-09-23T14:40:50.581Z,12.00
2018-09-23T14:42:53.598Z,11.90
2018-09-23T14:44:58.161Z,11.80
2018-09-23T14:47:01.159Z,11.80
2018-09-23T14:49:04.213Z,11.70
2018-09-23T14:51:07.234Z,11.70
2018-09-23T14:53:10.240Z,11.70
2018-09-23T14:55:13.308Z,11.70
2018-09-23T14:57:16.341Z,11.70
2018-09-23T14:59:19.380Z,11.70
2018-09-23T15:01:22.386Z,11.70
2018-09-23T15:03:25.729Z,11.60
2018-09-23T15:05:29.917Z,11.60
2018-09-23T15:07:32.929Z,11.60
2018-09-23T15:09:35.986Z,11.60
2018-09-23T15:11:39.053Z,11.50
2018-09-23T15:13:42.104Z,11.50
2018-09-23T15:15:45.288Z,11.50
2018-09-23T15:17:48.313Z,11.50
2018-09-23T15:19:51.415Z,11.50
2018-09-23T15:21:54.636Z,11.50
2018-09-23T15:23:59.453Z,11.50
2018-09-23T15:26:02.581Z,11.50
2018-09-23T15:28:05.856Z,11.50
2018-09-23T15:30:08.883Z,11.50
2018-09-23T15:32:11.983Z,11.40
2018-09-23T15:34:15.132Z,11.40
2018-09-23T15:36:18.182Z,11.30
2018-09-23T15:38:21.211Z,11.20
2018-09-23T15:40:24.353Z,11.20
2018-09-23T15:42:28.978Z,11.20
2018-09-23T15:44:31.994Z,11.10
2018-09-23T15:46:35.069Z,11.10
2018-09-23T15:48:38.103Z,11.10
2018-09-23T15:50:41.502Z,11.10
2018-09-23T15:52:44.565Z,11.10
2018-09-23T15:54:47.623Z,11.10
2018-09-23T15:56:50.735Z,11.10
2018-09-23T15:58:53.794Z,11.10
2018-09-23T16:00:58.541Z,11.10
2018-09-23T16:03:01.782Z,11.00
2018-09-23T16:05:04.965Z,11.00
2018-09-23T16:07:08.078Z,10.90
2018-09-23T16:09:11.169Z,10.90
2018-09-23T16:11:14.225Z,10.90
2018-09-23T16:13:17.259Z,10.90
2018-09-23T16:15:20.769Z,10.90
2018-09-23T16:17:23.946Z,10.90
2018-09-23T16:19:28.867Z,10.80
2018-09-23T16:21:31.991Z,10.80
2018-09-23T16:23:35.039Z,10.80
2018-09-23T16:25:38.046Z,10.80
2018-09-23T16:27:41.189Z,10.70
2018-09-23T16:29:44.192Z,10.70
2018-09-23T16:31:47.278Z,10.70
2018-09-23T16:33:50.365Z,10.70
2018-09-23T16:35:53.439Z,10.60
2018-09-23T16:37:58.188Z,10.60
2018-09-23T16:40:01.250Z,10.60
2018-09-23T16:42:04.331Z,10.60
2018-09-23T16:44:08.100Z,10.50
2018-09-23T16:46:11.348Z,10.50
2018-09-23T16:48:14.559Z,10.50
2018-09-23T16:50:18.267Z,10.50
2018-09-23T16:52:22.046Z,10.40
2018-09-23T16:54:28.002Z,10.40
2018-09-23T16:56:31.478Z,10.40
2018-09-23T16:58:35.322Z,10.40
2018-09-23T17:00:39.238Z,10.30
2018-09-23T17:02:43.719Z,10.30
2018-09-23T17:04:47.591Z,10.30
2018-09-23T17:06:51.355Z,10.20
2018-09-23T17:08:55.085Z,10.20
2018-09-23T17:11:00.050Z,10.20
2018-09-23T17:13:03.832Z,10.20
2018-09-23T17:15:07.490Z,10.20
2018-09-23T17:17:10.974Z,10.10
2018-09-23T17:19:15.043Z,10.10
2018-09-23T17:21:18.908Z,10.10
2018-09-23T17:23:22.371Z,10.00
2018-09-23T17:25:27.958Z,10.00
2018-09-23T17:27:31.586Z,10.10
2018-09-23T17:29:35.425Z,10.10
2018-09-23T17:31:39.377Z,10.10
2018-09-23T17:33:42.708Z,10.10
2018-09-23T17:35:45.975Z,10.10
2018-09-23T17:37:50.092Z,10.10
2018-09-23T17:39:54.038Z,10.10
2018-09-23T17:41:59.111Z,10.10
2018-09-23T17:44:02.821Z,10.10
2018-09-23T17:46:06.768Z,10.10
2018-09-23T17:48:10.023Z,10.10
2018-09-23T17:50:13.903Z,10.10
2018-09-23T17:52:17.800Z,10.10
2018-09-23T17:54:21.737Z,10.00
2018-09-23T17:56:27.450Z,10.00
2018-09-23T17:58:30.885Z,10.00
2018-09-23T18:00:34.705Z,10.00
2018-09-23T18:02:38.452Z,10.00
2018-09-23T18:04:42.154Z,10.00
2018-09-23T18:06:46.111Z,10.00
2018-09-23T18:08:50.090Z,10.00
2018-09-23T18:10:53.798Z,10.00
2018-09-23T18:12:58.951Z,9.90
2018-09-23T18:15:03.125Z,9.90
2018-09-23T18:17:07.219Z,9.90
2018-09-23T18:19:11.013Z,9.90
2018-09-23T18:21:15.083Z,9.90
2018-09-23T18:23:19.033Z,9.90
2018-09-23T18:25:23.140Z,9.80
2018-09-23T18:27:28.774Z,9.80
2018-09-23T18:29:32.180Z,9.80
2018-09-23T18:31:36.110Z,9.80
2018-09-23T18:33:40.021Z,9.80
2018-09-23T18:35:43.032Z,9.80
2018-09-23T18:37:46.084Z,9.70
2018-09-23T18:39:49.141Z,9.70
2018-09-23T18:41:52.929Z,9.70
2018-09-23T18:43:58.644Z,9.70
2018-09-23T18:46:02.479Z,9.60
2018-09-23T18:48:05.688Z,9.60
2018-09-23T18:50:09.607Z,9.50
2018-09-23T18:52:13.537Z,9.50
2018-09-23T18:54:22.621Z,9.50
2018-09-23T18:56:27.879Z,9.40
2018-09-23T18:58:31.326Z,9.40
2018-09-23T19:00:34.691Z,9.40
2018-09-23T19:02:38.835Z,9.30
2018-09-23T19:04:42.710Z,9.30
2018-09-23T19:06:46.863Z,9.30
2018-09-23T19:08:50.787Z,9.20
2018-09-23T19:10:54.290Z,9.20
2018-09-23T19:13:04.683Z,9.20
2018-09-23T19:15:08.011Z,9.10
2018-09-23T19:17:11.241Z,9.10
2018-09-23T19:19:14.505Z,9.10
2018-09-23T19:21:17.529Z,9.10
2018-09-23T19:23:21.432Z,9.10
2018-09-23T19:25:25.190Z,9.10
2018-09-23T19:27:29.967Z,9.10
2018-09-23T19:29:34.516Z,9.10
2018-09-23T19:31:38.461Z,9.10
2018-09-23T19:33:41.623Z,9.10
2018-09-23T19:35:44.964Z,9.10
2018-09-23T19:37:48.770Z,9.10
2018-09-23T19:39:51.860Z,9.10
2018-09-23T19:41:55.526Z,9.00
2018-09-23T19:44:00.706Z,9.00
2018-09-23T19:46:05.469Z,9.00
2018-09-23T19:48:08.552Z,9.00
2018-09-23T19:50:11.603Z,9.00
2018-09-23T19:52:14.722Z,8.90
2018-09-23T19:54:17.775Z,9.00
2018-09-23T19:56:20.801Z,9.00
2018-09-23T19:58:23.857Z,9.00
2018-09-23T20:00:28.528Z,9.00
2018-09-23T20:02:31.594Z,9.00
2018-09-23T20:04:34.669Z,9.00
2018-09-23T20:06:37.835Z,9.00
2018-09-23T20:08:40.827Z,9.00
2018-09-23T20:10:43.921Z,9.00
2018-09-23T20:12:46.929Z,9.00
2018-09-23T20:14:50.259Z,9.00
2018-09-23T20:16:53.736Z,9.00
2018-09-23T20:18:58.237Z,9.00
2018-09-23T20:21:01.296Z,9.00
2018-09-23T20:23:19.945Z,9.00
2018-09-23T20:25:29.816Z,9.00
2018-09-23T20:27:32.873Z,9.00
2018-09-23T20:29:36.145Z,9.00
2018-09-23T20:31:40.417Z,9.00
2018-09-23T20:33:44.185Z,9.00
2018-09-23T20:35:47.295Z,9.00
2018-09-23T20:37:50.437Z,8.90
2018-09-23T20:39:53.577Z,8.90
2018-09-23T20:41:56.807Z,8.80
2018-09-23T20:43:59.949Z,8.80
2018-09-23T20:46:03.040Z,8.80
2018-09-23T20:48:06.148Z,8.80
2018-09-23T20:50:21.393Z,8.80
2018-09-23T20:52:24.495Z,8.80
2018-09-23T20:54:29.543Z,8.80
2018-09-23T20:56:32.738Z,8.70
2018-09-23T20:58:35.766Z,8.70
2018-09-23T21:00:38.800Z,8.80
2018-09-23T21:02:42.253Z,8.80
2018-09-23T21:04:45.511Z,8.80
2018-09-23T21:06:48.572Z,8.80
2018-09-23T21:08:51.780Z,8.80
2018-09-23T21:10:54.844Z,8.80
2018-09-23T21:12:59.741Z,8.80
2018-09-23T21:15:03.017Z,8.70
2018-09-23T21:17:06.075Z,8.70
2018-09-23T21:19:09.099Z,8.70
2018-09-23T21:21:12.150Z,8.80
2018-09-23T21:23:15.200Z,8.70
2018-09-23T21:25:18.210Z,8.70
2018-09-23T21:27:21.279Z,8.70
2018-09-23T21:29:24.313Z,8.70
2018-09-23T21:31:28.449Z,8.70
2018-09-23T21:33:31.703Z,8.70
2018-09-23T21:35:34.737Z,8.70
2018-09-23T21:37:37.762Z,8.70
2018-09-23T21:39:40.810Z,8.70
2018-09-23T21:41:43.867Z,8.70
2018-09-23T21:43:46.979Z,8.70
2018-09-23T21:45:50.325Z,8.70
2018-09-23T21:47:53.360Z,8.80
2018-09-23T21:49:58.069Z,8.80
2018-09-23T21:52:01.129Z,8.70
2018-09-23T21:54:04.575Z,8.70
2018-09-23T21:56:07.639Z,8.80
2018-09-23T21:58:10.728Z,8.80
2018-09-23T22:00:13.803Z,8.70
2018-09-23T22:02:17.019Z,8.80
2018-09-23T22:04:20.193Z,8.80
2018-09-23T22:06:23.339Z,8.80
2018-09-23T22:08:28.716Z,8.80
2018-09-23T22:10:31.758Z,8.80
2018-09-23T22:12:34.849Z,8.80
2018-09-23T22:14:38.107Z,8.80
2018-09-23T22:16:41.143Z,8.80
2018-09-23T22:18:44.136Z,8.80
2018-09-23T22:20:47.216Z,8.80
2018-09-23T22:22:50.302Z,8.80
2018-09-23T22:24:53.366Z,8.80
2018-09-23T22:26:58.071Z,8.80
2018-09-23T22:29:01.309Z,8.80
2018-09-23T22:31:04.395Z,8.80
2018-09-23T22:33:07.402Z,8.80
2018-09-23T22:35:10.442Z,8.70
2018-09-23T22:37:13.493Z,8.80
2018-09-23T22:39:16.503Z,8.70
2018-09-23T22:41:19.513Z,8.70
2018-09-23T22:43:22.571Z,8.70
2018-09-23T22:45:25.655Z,8.70
2018-09-23T22:47:28.776Z,8.70
2018-09-23T22:49:31.884Z,8.70
2018-09-23T22:51:34.934Z,8.60
2018-09-23T22:53:37.949Z,8.60
2018-09-23T22:55:41.133Z,8.60
2018-09-23T22:57:44.309Z,8.60
2018-09-23T22:59:47.556Z,8.60
2018-09-23T23:01:50.570Z,8.60
2018-09-23T23:03:53.670Z,8.50
2018-09-23T23:05:58.221Z,8.50
2018-09-23T23:08:01.807Z,8.50
2018-09-23T23:10:04.885Z,8.50
2018-09-23T23:12:08.000Z,8.50
2018-09-23T23:14:11.026Z,8.50
2018-09-23T23:16:14.071Z,8.40
2018-09-23T23:18:17.308Z,8.40
2018-09-23T23:20:20.334Z,8.40
2018-09-23T23:22:23.351Z,8.40
2018-09-23T23:24:28.128Z,8.40
2018-09-23T23:26:31.184Z,8.40
2018-09-23T23:28:34.291Z,8.40
2018-09-23T23:30:37.517Z,8.40
2018-09-23T23:32:40.695Z,8.40
2018-09-23T23:34:44.125Z,8.40
2018-09-23T23:36:47.287Z,8.40
2018-09-23T23:38:50.310Z,8.40
2018-09-23T23:40:53.390Z,8.40
2018-09-23T23:42:57.944Z,8.40
2018-09-23T23:45:00.965Z,8.40
2018-09-23T23:47:04.249Z,8.40
2018-09-23T23:49:07.798Z,8.40
2018-09-23T23:51:12.507Z,8.40
2018-09-23T23:53:15.560Z,8.40
2018-09-23T23:55:18.921Z,8.40
2018-09-23T23:57:21.924Z,8.40
2018-09-23T23:59:24.906Z,8.40
